San Jose, Costa Rica

4:40 PM CST on September 21, 2014 (GMT -0600)
Juan Santamaria International | Change Station
CLOSE
Current Station
Airport
Location: San Jose,
Elevation: 3018 ft
Nearby Weather Stations

Elev 3018 ft 9.99 °N, 84.21 °W | Updated 32 minutes ago

Light Rain
Light Rain Mist
68 °F
Feels Like 68 °F
N
0
Wind Variable Wind from North

Today
High -- | Low -- °F
--% Chance of Precip.
Yesterday
High -- | Low -- °F
Precip. -- in
5:26 AM 5:33 PM
Waning Crescent, 5% visible
Pressure 30.00 in
Visibility 1.6 miles
Clouds Few 200 ft
Mostly Cloudy 1200 ft
Dew Point 66 °F
Humidity 94%
Rainfall 0.00 in
Snow Depth Not available.
UV 1 out of 12
Pollen Not available.
Air Quality Not available.
Flu Activity Not available.
SPECI MROC 212208Z 00000KT 2500 -RA BR FEW002 BKN012 20/19 A3000 NOSI G

More Conditions Fewer Conditions

Pressure 30.00 in
Visibility 1.6 miles
Clouds Few 200 ft
Mostly Cloudy 1200 ft
Dew Point 66 °F
Humidity 94%
Rainfall 0.00 in
Snow Depth Not available.
UV 1 out of 12
Pollen Not available.
Air Quality Not available.
Flu Activity Not available.
SPECI MROC 212208Z 00000KT 2500 -RA BR FEW002 BKN012 20/19 A3000 NOSI G

More Conditions Fewer Conditions

10-Day Weather Forecast

Almanac

Astronomy

Sep. 21, 2014 Rise Set
Actual Time 5:26 AM CST 5:33 PM CST
Civil Twilight 5:05 AM CST 5:54 PM CST
Nautical Twilight 4:40 AM CST 6:18 PM CST
Astronomical Twilight 4:16 AM CST 6:43 PM CST
Moon 3:20 AM CST 3:52 PM CST
Length of Visible Light 12h 49m
Length of Day
12h 07m
Tomorrow will be 0m 33s shorter.
Waning Crescent, 5% of the Moon is Illuminated
Today
Waning Crescent
Sep 24
New
Oct 1
First Quarter
Oct 8
Full
Oct 15
Last Quarter

Today's Extremes

Country Highs Country Lows

Community

WunderPhotos

Upload Photos

1,755,280 photos uploaded!

WunderBlogs® & News

Nearby

Snow Depth

Not available.

Earthquake Activity

City Distance Mag. Time & Date
No recent earthquake activity has been reported nearby.
Minimum magnitude displayed is 2.5.

Coastal Water Temperatures

Place Temperature
No Stations Reporting

Nearby Weather Stations